createdAt,value
2023-04-19T00:02:25.865Z,12.44
2023-04-19T00:04:53.470Z,12.34
2023-04-19T00:07:20.510Z,12.35
2023-04-19T00:09:47.222Z,12.37
2023-04-19T00:12:13.841Z,12.36
2023-04-19T00:14:40.464Z,12.26
2023-04-19T00:17:07.305Z,12.32
2023-04-19T00:19:34.073Z,12.31
2023-04-19T00:22:00.851Z,12.21
2023-04-19T00:24:27.563Z,12.24
2023-04-19T00:26:54.401Z,12.20
2023-04-19T00:29:21.096Z,12.28
2023-04-19T00:31:47.702Z,12.17
2023-04-19T00:34:14.565Z,12.06
2023-04-19T00:36:41.357Z,11.95
2023-04-19T00:39:08.024Z,11.78
2023-04-19T00:41:34.695Z,11.78
2023-04-19T00:44:01.260Z,11.74
2023-04-19T00:46:28.049Z,11.68
2023-04-19T00:48:54.746Z,11.71
2023-04-19T00:51:22.448Z,11.61
2023-04-19T00:53:49.596Z,11.69
2023-04-19T00:56:17.782Z,11.58
2023-04-19T00:58:45.079Z,11.64
2023-04-19T01:01:11.828Z,11.68
2023-04-19T01:03:38.827Z,11.72
2023-04-19T01:06:05.812Z,11.62
2023-04-19T01:08:32.529Z,11.68
2023-04-19T01:10:59.144Z,11.65
2023-04-19T01:13:25.906Z,11.70
2023-04-19T01:15:52.841Z,11.67
2023-04-19T01:18:19.521Z,11.71
2023-04-19T01:20:46.280Z,11.70
2023-04-19T01:23:13.023Z,11.77
2023-04-19T01:25:39.681Z,11.71
2023-04-19T01:28:06.607Z,11.76
2023-04-19T01:30:33.395Z,11.63
2023-04-19T01:33:00.146Z,11.74
2023-04-19T01:35:26.817Z,11.68
2023-04-19T01:37:55.621Z,11.67
2023-04-19T01:40:26.097Z,11.70
2023-04-19T01:42:53.243Z,11.63
2023-04-19T01:45:20.570Z,11.62
2023-04-19T01:47:47.293Z,11.61
2023-04-19T01:50:13.991Z,11.54
2023-04-19T01:52:40.719Z,11.48
2023-04-19T01:55:07.712Z,11.51
2023-04-19T01:57:37.304Z,11.43
2023-04-19T02:00:04.421Z,11.37
2023-04-19T02:02:31.284Z,11.43
2023-04-19T02:04:58.121Z,11.48
2023-04-19T02:07:24.803Z,11.48
2023-04-19T02:09:54.146Z,11.37
2023-04-19T02:12:20.843Z,11.40
2023-04-19T02:14:47.721Z,11.35
2023-04-19T02:17:14.398Z,11.37
2023-04-19T02:19:41.005Z,11.45
2023-04-19T02:22:07.719Z,11.47
2023-04-19T02:24:34.351Z,11.43
2023-04-19T02:27:02.069Z,11.38
2023-04-19T02:29:32.145Z,11.42
2023-04-19T02:32:01.364Z,11.46
2023-04-19T02:34:29.060Z,11.48
2023-04-19T02:36:55.747Z,11.45
2023-04-19T02:39:22.336Z,11.46
2023-04-19T02:41:49.960Z,11.42
2023-04-19T02:44:16.993Z,11.39
2023-04-19T02:46:50.906Z,11.42
2023-04-19T02:49:18.481Z,11.41
2023-04-19T02:51:45.235Z,11.45
2023-04-19T02:54:12.672Z,11.37
2023-04-19T02:56:39.746Z,11.41
2023-04-19T02:59:06.603Z,11.42
2023-04-19T03:01:33.568Z,11.35
2023-04-19T03:04:00.324Z,11.37
2023-04-19T03:06:29.418Z,11.40
2023-04-19T03:08:56.040Z,11.37
2023-04-19T03:11:22.659Z,11.32
2023-04-19T03:13:49.296Z,11.29
2023-04-19T03:16:16.438Z,11.29
2023-04-19T03:18:43.113Z,11.28
2023-04-19T03:21:09.804Z,11.18
2023-04-19T03:23:36.407Z,11.14
2023-04-19T03:26:03.328Z,11.15
2023-04-19T03:28:29.952Z,11.14
2023-04-19T03:30:56.604Z,11.13
2023-04-19T03:33:23.298Z,11.12
2023-04-19T03:35:49.978Z,11.05
2023-04-19T03:38:19.303Z,11.01
2023-04-19T03:40:47.213Z,10.91
2023-04-19T03:43:13.866Z,10.86
2023-04-19T03:45:40.475Z,10.82
2023-04-19T03:48:08.160Z,10.81
2023-04-19T03:50:34.788Z,10.78
2023-04-19T03:53:01.426Z,10.88
2023-04-19T03:55:28.228Z,10.79
2023-04-19T03:57:54.843Z,10.85
2023-04-19T04:00:21.642Z,10.90
2023-04-19T04:02:51.442Z,10.81
2023-04-19T04:05:21.066Z,10.89
2023-04-19T04:07:47.710Z,10.82
2023-04-19T04:10:14.384Z,10.92
2023-04-19T04:12:44.389Z,10.90
2023-04-19T04:15:11.373Z,10.90
2023-04-19T04:17:38.068Z,10.87
2023-04-19T04:20:05.849Z,10.88
2023-04-19T04:22:32.891Z,10.87
2023-04-19T04:25:01.492Z,10.89
2023-04-19T04:27:28.142Z,10.86
2023-04-19T04:29:56.814Z,10.87
2023-04-19T04:32:23.753Z,10.90
2023-04-19T04:34:51.967Z,10.96
2023-04-19T04:37:23.549Z,10.96
2023-04-19T04:39:50.625Z,10.99
2023-04-19T04:42:17.637Z,10.95
2023-04-19T04:44:45.340Z,10.92
2023-04-19T04:47:13.395Z,11.01
2023-04-19T04:49:40.001Z,11.04
2023-04-19T04:52:06.733Z,11.00
2023-04-19T04:54:33.427Z,11.03
2023-04-19T04:57:00.945Z,11.04
2023-04-19T04:59:27.605Z,11.06
2023-04-19T05:01:54.236Z,11.10
2023-04-19T05:04:21.029Z,11.10
2023-04-19T05:06:47.649Z,11.19
2023-04-19T05:09:14.336Z,11.17
2023-04-19T05:11:40.958Z,11.24
2023-04-19T05:14:09.499Z,11.29
2023-04-19T05:16:36.329Z,11.22
2023-04-19T05:19:02.970Z,11.35
2023-04-19T05:21:33.084Z,11.32
2023-04-19T05:23:59.733Z,11.49
2023-04-19T05:26:26.312Z,11.47
2023-04-19T05:28:53.046Z,11.50
2023-04-19T05:31:21.101Z,11.56
2023-04-19T05:33:47.980Z,11.52
2023-04-19T05:36:14.722Z,11.62
2023-04-19T05:38:41.364Z,11.61
2023-04-19T05:41:08.309Z,11.57
2023-04-19T05:43:34.995Z,11.52
2023-04-19T05:46:01.812Z,11.59
2023-04-19T05:48:31.426Z,11.66
2023-04-19T05:50:58.967Z,11.72
2023-04-19T05:53:25.702Z,11.81
2023-04-19T05:55:52.363Z,12.01
2023-04-19T05:58:23.354Z,12.09
2023-04-19T06:00:51.826Z,12.06
2023-04-19T06:03:18.758Z,12.09
2023-04-19T06:05:45.538Z,12.40
2023-04-19T06:08:12.272Z,12.44
2023-04-19T06:10:52.783Z,12.57
2023-04-19T06:13:21.131Z,12.85
2023-04-19T06:15:48.859Z,12.97
2023-04-19T06:18:19.108Z,12.72
2023-04-19T06:20:47.362Z,12.99
2023-04-19T06:23:14.997Z,13.02
2023-04-19T06:25:43.341Z,13.01
2023-04-19T06:28:10.030Z,13.04
2023-04-19T06:30:36.770Z,13.13
2023-04-19T06:33:03.444Z,13.33
2023-04-19T06:35:30.216Z,13.44
2023-04-19T06:37:56.801Z,13.40
2023-04-19T06:40:23.379Z,13.55
2023-04-19T06:42:50.057Z,13.68
2023-04-19T06:45:16.836Z,13.90
2023-04-19T06:47:43.574Z,13.98
2023-04-19T06:50:11.227Z,13.97
2023-04-19T06:52:38.887Z,13.97
2023-04-19T06:55:07.476Z,14.04
2023-04-19T06:57:36.873Z,14.21
2023-04-19T07:00:06.742Z,14.50
2023-04-19T07:02:33.338Z,13.98
2023-04-19T07:05:03.991Z,14.08
2023-04-19T07:07:30.642Z,14.05
2023-04-19T07:09:57.235Z,14.14
2023-04-19T07:12:23.878Z,14.58
2023-04-19T07:14:56.362Z,14.45
2023-04-19T07:17:23.701Z,14.84
2023-04-19T07:19:50.562Z,14.76
2023-04-19T07:22:17.188Z,14.87
2023-04-19T07:24:44.705Z,15.05
2023-04-19T07:27:12.162Z,14.75
2023-04-19T07:29:38.973Z,15.01
2023-04-19T07:32:06.036Z,14.84
2023-04-19T07:34:32.690Z,15.07
2023-04-19T07:36:59.372Z,14.90
2023-04-19T07:39:26.115Z,15.36
2023-04-19T07:41:52.698Z,15.48
2023-04-19T07:44:19.609Z,15.34
2023-04-19T07:46:46.427Z,15.51
2023-04-19T07:49:13.958Z,15.36
2023-04-19T07:51:40.601Z,15.53
2023-04-19T07:54:09.983Z,15.24
2023-04-19T07:56:36.976Z,15.08
2023-04-19T07:59:08.417Z,15.17
2023-04-19T08:01:37.155Z,15.47
2023-04-19T08:04:04.427Z,15.34
2023-04-19T08:06:32.674Z,15.33
2023-04-19T08:08:59.350Z,15.91
2023-04-19T08:11:25.970Z,15.34
2023-04-19T08:14:04.729Z,15.55
2023-04-19T08:19:08.988Z,16.00
2023-04-19T08:21:41.020Z,15.85
2023-04-19T08:24:08.773Z,16.06
2023-04-19T08:26:35.543Z,16.06
2023-04-19T08:29:02.452Z,16.07
2023-04-19T08:31:29.252Z,16.12
2023-04-19T08:33:57.007Z,16.30
2023-04-19T08:36:37.203Z,16.15
2023-04-19T08:39:14.843Z,16.40
2023-04-19T08:42:06.826Z,16.28
2023-04-19T08:44:58.987Z,16.36
2023-04-19T08:47:33.649Z,16.04
2023-04-19T08:50:17.531Z,15.91
2023-04-19T08:52:58.787Z,16.38
2023-04-19T08:55:30.301Z,16.32
2023-04-19T08:57:57.588Z,16.19
2023-04-19T09:00:24.202Z,16.41
2023-04-19T09:02:53.498Z,16.67
2023-04-19T09:05:20.942Z,16.56
2023-04-19T09:07:48.244Z,16.41
2023-04-19T09:10:17.910Z,16.76
2023-04-19T09:13:01.870Z,16.51
2023-04-19T09:15:39.848Z,16.25
2023-04-19T09:18:10.914Z,16.29
2023-04-19T09:20:44.657Z,16.15
2023-04-19T09:23:13.746Z,16.44
2023-04-19T09:26:15.168Z,15.90
2023-04-19T09:28:37.832Z,16.15
2023-04-19T09:31:33.166Z,16.25
2023-04-19T09:34:18.437Z,16.47
2023-04-19T09:36:46.925Z,16.24
2023-04-19T09:39:16.059Z,16.25
2023-04-19T09:41:53.609Z,16.23
2023-04-19T09:44:53.017Z,16.53
2023-04-19T09:47:30.145Z,16.76
2023-04-19T09:50:21.390Z,17.80
2023-04-19T09:52:50.187Z,17.64
2023-04-19T09:57:48.915Z,18.38
2023-04-19T10:00:16.178Z,17.87
2023-04-19T10:02:45.200Z,18.01
2023-04-19T10:05:21.253Z,18.32
2023-04-19T10:07:50.032Z,18.24
2023-04-19T10:10:27.624Z,17.87
2023-04-19T10:13:19.599Z,17.79
2023-04-19T10:15:52.416Z,18.45
2023-04-19T10:18:23.299Z,18.15
2023-04-19T10:20:58.584Z,17.99
2023-04-19T10:23:25.494Z,17.51
2023-04-19T10:25:57.735Z,17.20
2023-04-19T10:28:24.850Z,17.05
2023-04-19T10:31:01.049Z,17.17
2023-04-19T10:33:34.867Z,16.86
2023-04-19T10:36:02.255Z,17.25
2023-04-19T10:38:52.052Z,18.34
2023-04-19T10:41:19.362Z,18.42
2023-04-19T10:43:58.305Z,18.42
2023-04-19T10:46:26.143Z,18.68
2023-04-19T10:48:54.121Z,18.65
2023-04-19T10:51:38.922Z,18.65
2023-04-19T10:54:10.316Z,18.60
2023-04-19T10:56:36.879Z,18.37
2023-04-19T10:59:11.346Z,18.06
2023-04-19T11:01:49.940Z,18.30
2023-04-19T11:04:23.109Z,18.85
2023-04-19T11:06:52.919Z,19.44
2023-04-19T11:09:22.237Z,19.42
2023-04-19T11:11:48.844Z,18.67
2023-04-19T11:14:17.030Z,18.14
2023-04-19T11:16:46.136Z,18.84
2023-04-19T11:19:22.341Z,18.44
2023-04-19T11:21:49.639Z,18.44
2023-04-19T11:24:18.789Z,18.84
2023-04-19T11:26:46.210Z,18.67
2023-04-19T11:29:13.689Z,19.17
2023-04-19T11:31:40.795Z,19.22
2023-04-19T11:34:08.711Z,19.04
2023-04-19T11:36:53.898Z,19.95
2023-04-19T11:39:21.857Z,20.61
2023-04-19T11:41:48.492Z,20.39
2023-04-19T11:44:17.594Z,20.88
2023-04-19T11:46:58.344Z,20.44
2023-04-19T11:49:32.723Z,20.82
2023-04-19T11:52:04.628Z,19.63
2023-04-19T11:54:33.028Z,19.27
2023-04-19T11:57:02.636Z,19.04
2023-04-19T11:59:29.484Z,18.60
2023-04-19T12:01:56.257Z,18.68
2023-04-19T12:04:23.582Z,18.00
2023-04-19T12:06:59.586Z,17.35
2023-04-19T12:09:26.523Z,16.51
2023-04-19T12:11:53.732Z,16.24
2023-04-19T12:14:23.193Z,15.96
2023-04-19T12:17:09.941Z,16.26
2023-04-19T12:19:42.112Z,16.36
2023-04-19T12:22:10.505Z,16.30
2023-04-19T12:24:37.829Z,15.90
2023-04-19T12:27:04.439Z,16.01
2023-04-19T12:29:31.689Z,16.06
2023-04-19T12:31:58.413Z,15.91
2023-04-19T12:34:25.524Z,16.38
2023-04-19T12:36:52.090Z,16.34
2023-04-19T12:39:18.746Z,16.63
2023-04-19T12:41:45.748Z,16.98
2023-04-19T12:44:12.333Z,16.87
2023-04-19T12:46:39.012Z,16.82
2023-04-19T12:49:05.791Z,17.16
2023-04-19T12:51:35.145Z,16.99
2023-04-19T12:54:02.535Z,16.68
2023-04-19T12:56:29.238Z,17.11
2023-04-19T12:58:55.829Z,16.78
2023-04-19T13:01:22.484Z,16.84
2023-04-19T13:03:49.288Z,17.09
2023-04-19T13:06:17.001Z,16.90
2023-04-19T13:08:46.525Z,16.82
2023-04-19T13:11:17.089Z,16.76
2023-04-19T13:13:43.717Z,16.65
2023-04-19T13:16:11.156Z,16.78
2023-04-19T13:18:37.959Z,16.58
2023-04-19T13:21:06.708Z,16.37
2023-04-19T13:23:37.748Z,16.38
2023-04-19T13:26:04.647Z,16.25
2023-04-19T13:28:31.286Z,16.15
2023-04-19T13:30:58.024Z,16.17
2023-04-19T13:33:26.032Z,16.45
2023-04-19T13:35:52.693Z,16.40
2023-04-19T13:38:20.358Z,16.38
2023-04-19T13:40:47.146Z,16.36
2023-04-19T13:43:13.774Z,16.30
2023-04-19T13:45:40.397Z,16.17
2023-04-19T13:48:07.040Z,16.10
2023-04-19T13:50:33.723Z,16.24
2023-04-19T13:53:00.501Z,16.48
2023-04-19T13:55:27.393Z,16.43
2023-04-19T13:57:53.994Z,16.38
2023-04-19T14:00:21.290Z,16.16
2023-04-19T14:02:50.021Z,16.30
2023-04-19T14:05:18.291Z,16.42
2023-04-19T14:07:45.095Z,16.27
2023-04-19T14:10:15.676Z,16.33
2023-04-19T14:12:42.315Z,16.14
2023-04-19T14:15:09.178Z,16.16
2023-04-19T14:17:37.562Z,16.03
2023-04-19T14:20:07.262Z,16.08
2023-04-19T14:22:35.320Z,16.02
2023-04-19T14:25:02.979Z,15.99
2023-04-19T14:27:30.660Z,16.03
2023-04-19T14:29:57.290Z,16.19
2023-04-19T14:32:26.664Z,16.10
2023-04-19T14:34:55.148Z,16.24
2023-04-19T14:37:22.496Z,16.44
2023-04-19T14:39:49.267Z,16.58
2023-04-19T14:42:15.880Z,16.59
2023-04-19T14:44:42.504Z,16.80
2023-04-19T14:47:09.100Z,16.85
2023-04-19T14:49:35.686Z,16.77
2023-04-19T14:52:04.224Z,16.80
2023-04-19T14:54:31.993Z,16.47
2023-04-19T14:56:58.616Z,16.37
2023-04-19T14:59:25.787Z,16.37
2023-04-19T15:01:53.452Z,16.43
2023-04-19T15:04:20.302Z,16.54
2023-04-19T15:06:47.102Z,16.42
2023-04-19T15:09:14.182Z,16.55
2023-04-19T15:11:41.315Z,16.37
2023-04-19T15:14:07.998Z,16.34
2023-04-19T15:16:34.789Z,16.40
2023-04-19T15:19:02.554Z,16.43
2023-04-19T15:21:29.216Z,16.48
2023-04-19T15:23:55.848Z,16.43
2023-04-19T15:26:23.758Z,16.43
2023-04-19T15:28:54.789Z,16.36
2023-04-19T15:31:21.602Z,16.39
2023-04-19T15:33:48.296Z,16.36
2023-04-19T15:36:14.858Z,16.42
2023-04-19T15:38:43.808Z,16.33
2023-04-19T15:41:11.327Z,16.24
2023-04-19T15:43:41.125Z,16.28
2023-04-19T15:46:14.880Z,16.26
2023-04-19T15:48:43.617Z,16.17
2023-04-19T15:51:11.389Z,16.17
2023-04-19T15:53:38.060Z,16.20
2023-04-19T15:56:05.484Z,16.21
2023-04-19T15:58:34.409Z,16.20
2023-04-19T16:01:01.059Z,16.28
2023-04-19T16:03:28.469Z,16.14
2023-04-19T16:05:55.654Z,16.21
2023-04-19T16:08:22.361Z,16.13
2023-04-19T16:10:49.528Z,16.13
2023-04-19T16:13:16.556Z,16.10
2023-04-19T16:15:44.059Z,16.15
2023-04-19T16:18:11.389Z,16.07
2023-04-19T16:20:39.367Z,16.01
2023-04-19T16:23:08.536Z,15.91
2023-04-19T16:25:35.344Z,15.91
2023-04-19T16:28:02.013Z,15.91
2023-04-19T16:30:28.773Z,15.91
2023-04-19T16:32:56.654Z,15.83
2023-04-19T16:35:24.176Z,15.86
2023-04-19T16:37:51.316Z,15.80
2023-04-19T16:40:18.118Z,15.82
2023-04-19T16:42:44.773Z,15.72
2023-04-19T16:45:11.514Z,15.68
2023-04-19T16:47:38.539Z,15.62
2023-04-19T16:50:06.241Z,15.65
2023-04-19T16:52:34.935Z,15.59
2023-04-19T16:55:04.268Z,15.57
2023-04-19T16:57:32.384Z,15.53
2023-04-19T16:59:59.350Z,15.50
2023-04-19T17:02:26.272Z,15.52
2023-04-19T17:04:53.166Z,15.48
2023-04-19T17:07:19.869Z,15.35
2023-04-19T17:09:46.726Z,15.34
2023-04-19T17:12:13.402Z,15.32
2023-04-19T17:14:40.649Z,15.29
2023-04-19T17:17:07.304Z,15.20
2023-04-19T17:19:33.914Z,15.27
2023-04-19T17:22:05.337Z,15.22
2023-04-19T17:24:33.537Z,15.21
2023-04-19T17:27:00.881Z,15.15
2023-04-19T17:29:28.587Z,15.14
2023-04-19T17:31:56.235Z,15.09
2023-04-19T17:34:23.595Z,15.05
2023-04-19T17:36:50.213Z,15.03
2023-04-19T17:39:17.310Z,15.05
2023-04-19T17:41:44.949Z,15.02
2023-04-19T17:44:12.644Z,15.01
2023-04-19T17:46:40.305Z,15.03
2023-04-19T17:49:07.103Z,14.96
2023-04-19T17:51:33.980Z,14.93
2023-04-19T17:54:00.737Z,14.92
2023-04-19T17:56:27.539Z,14.92
2023-04-19T17:58:54.203Z,14.88
2023-04-19T18:01:21.232Z,14.81
2023-04-19T18:03:48.438Z,14.79
2023-04-19T18:06:16.488Z,14.75
2023-04-19T18:08:46.519Z,14.75
2023-04-19T18:11:13.884Z,14.72
2023-04-19T18:13:40.478Z,14.74
2023-04-19T18:16:07.219Z,14.75
2023-04-19T18:18:33.940Z,14.73
2023-04-19T18:21:04.894Z,14.68
2023-04-19T18:23:32.901Z,14.67
2023-04-19T18:26:02.498Z,14.66
2023-04-19T18:28:29.220Z,14.69
2023-04-19T18:30:56.025Z,14.69
2023-04-19T18:33:22.866Z,14.69
2023-04-19T18:35:49.545Z,14.67
2023-04-19T18:38:16.287Z,14.62
2023-04-19T18:40:43.011Z,14.62
2023-04-19T18:43:09.662Z,14.59
2023-04-19T18:45:36.448Z,14.60
2023-04-19T18:48:03.615Z,14.52
2023-04-19T18:50:31.168Z,14.57
2023-04-19T18:52:58.553Z,14.46
2023-04-19T18:55:26.632Z,14.44
2023-04-19T18:57:53.327Z,14.40
2023-04-19T19:00:21.879Z,14.41
2023-04-19T19:02:50.798Z,14.41
2023-04-19T19:05:18.032Z,14.36
2023-04-19T19:07:45.473Z,14.40
2023-04-19T19:10:18.313Z,14.35
2023-04-19T19:12:50.892Z,14.29
2023-04-19T19:15:17.983Z,14.32
2023-04-19T19:17:49.263Z,14.32
2023-04-19T19:20:16.907Z,14.31
2023-04-19T19:22:43.621Z,14.34
2023-04-19T19:25:11.934Z,14.32
2023-04-19T19:27:38.886Z,14.25
2023-04-19T19:30:07.860Z,14.30
2023-04-19T19:32:34.737Z,14.19
2023-04-19T19:35:06.409Z,14.27
2023-04-19T19:37:36.717Z,14.24
2023-04-19T19:40:10.949Z,14.17
2023-04-19T19:42:39.413Z,14.08
2023-04-19T19:45:07.312Z,14.12
2023-04-19T19:47:35.604Z,14.23
2023-04-19T19:50:50.577Z,14.12
2023-04-19T19:52:52.601Z,14.12
2023-04-19T19:55:19.461Z,14.08
2023-04-19T20:05:16.751Z,14.04
2023-04-19T20:10:20.035Z,13.95
2023-04-19T20:12:47.432Z,13.98
2023-04-19T20:15:14.099Z,13.93
2023-04-19T20:17:40.912Z,13.90
2023-04-19T20:20:09.104Z,13.91
2023-04-19T20:22:41.494Z,13.95
2023-04-19T20:25:08.497Z,13.89
2023-04-19T20:27:35.213Z,13.78
2023-04-19T20:30:06.331Z,13.79
2023-04-19T20:32:32.948Z,13.77
2023-04-19T20:35:00.307Z,13.83
2023-04-19T20:37:27.244Z,13.76
2023-04-19T20:39:56.014Z,13.72
2023-04-19T20:42:22.714Z,13.72
2023-04-19T20:44:49.322Z,13.70
2023-04-19T20:47:16.914Z,13.70
2023-04-19T20:49:44.896Z,13.64
2023-04-19T20:52:11.493Z,13.66
2023-04-19T20:54:38.902Z,13.65
2023-04-19T20:57:05.593Z,13.65
2023-04-19T20:59:32.328Z,13.63
2023-04-19T21:02:00.209Z,13.56
2023-04-19T21:04:28.432Z,13.50
2023-04-19T21:06:56.174Z,13.48
2023-04-19T21:09:22.935Z,13.45
2023-04-19T21:11:49.805Z,13.41
2023-04-19T21:14:16.472Z,13.37
2023-04-19T21:16:43.149Z,13.31
2023-04-19T21:19:09.854Z,13.23
2023-04-19T21:21:36.485Z,13.23
2023-04-19T21:24:03.169Z,13.18
2023-04-19T21:26:29.913Z,13.18
2023-04-19T21:28:56.485Z,13.17
2023-04-19T21:31:23.278Z,13.04
2023-04-19T21:33:50.102Z,12.98
2023-04-19T21:36:16.757Z,13.01
2023-04-19T21:38:43.409Z,12.95
2023-04-19T21:41:10.923Z,12.92
2023-04-19T21:43:37.630Z,12.90
2023-04-19T21:46:05.227Z,12.90
2023-04-19T21:48:32.638Z,12.79
2023-04-19T21:51:00.520Z,12.73
2023-04-19T21:53:27.583Z,12.71
2023-04-19T21:55:54.222Z,12.68
2023-04-19T21:58:20.883Z,12.60
2023-04-19T22:00:48.629Z,12.67
2023-04-19T22:03:15.854Z,12.55
2023-04-19T22:05:43.202Z,12.53
2023-04-19T22:08:09.811Z,12.36
2023-04-19T22:10:37.790Z,12.34
2023-04-19T22:13:04.880Z,12.34
2023-04-19T22:15:31.828Z,12.28
2023-04-19T22:17:58.603Z,12.17
2023-04-19T22:20:26.882Z,12.08
2023-04-19T22:22:53.580Z,12.01
2023-04-19T22:25:20.365Z,12.00
2023-04-19T22:27:48.996Z,11.91
2023-04-19T22:30:16.242Z,11.84
2023-04-19T22:32:42.897Z,11.77
2023-04-19T22:35:09.785Z,11.73
2023-04-19T22:37:36.807Z,11.61
2023-04-19T22:40:06.109Z,11.57
2023-04-19T22:42:32.743Z,11.57
2023-04-19T22:44:59.348Z,11.45
2023-04-19T22:47:26.431Z,11.39
2023-04-19T22:49:54.171Z,11.38
2023-04-19T22:52:20.851Z,11.18
2023-04-19T22:54:47.612Z,11.24
2023-04-19T22:57:14.235Z,11.17
2023-04-19T22:59:41.028Z,11.05
2023-04-19T23:02:07.783Z,11.02
2023-04-19T23:04:41.547Z,11.01
2023-04-19T23:07:08.353Z,10.90
2023-04-19T23:09:39.404Z,10.77
2023-04-19T23:12:07.023Z,10.68
2023-04-19T23:14:34.013Z,10.70
2023-04-19T23:17:02.748Z,10.68
2023-04-19T23:19:30.546Z,10.66
2023-04-19T23:21:57.267Z,10.54
2023-04-19T23:24:24.218Z,10.52
2023-04-19T23:26:51.162Z,10.45
2023-04-19T23:29:18.364Z,10.35
2023-04-19T23:31:45.503Z,10.36
2023-04-19T23:34:12.334Z,10.36
2023-04-19T23:36:38.937Z,10.30
2023-04-19T23:39:05.524Z,10.28
2023-04-19T23:41:32.188Z,10.28
2023-04-19T23:43:58.877Z,10.29
2023-04-19T23:46:25.594Z,10.21
2023-04-19T23:48:52.262Z,10.11
2023-04-19T23:51:18.910Z,10.05
2023-04-19T23:53:45.545Z,10.04
2023-04-19T23:56:12.180Z,9.94
2023-04-19T23:58:38.877Z,9.99
